Time;durP1;ratioP1;P1;durP2;ratioP2;P2;SDS_P1;SDS_P2;PMS_P1;PMS_P2;Temp;Humidity;BMP_temperature;BMP_pressure;BME280_temperature;BME280_humidity;BME280_pressure;Samples;Min_cycle;Max_cycle;Signal;HPM_P1;HPM_P2
2024/01/08 00:01:57;;;;;;;4.95;3.17;;;;;;;-2.54;69.93;99022.47;4931117;28;103201;-63
2024/01/08 00:04:25;;;;;;;5.30;3.13;;;;;;;-2.71;69.56;99022.44;4930586;28;102802;-63
2024/01/08 00:06:53;;;;;;;3.90;2.50;;;;;;;-2.55;69.14;99020.78;4931409;28;102883;-63
2024/01/08 00:09:21;;;;;;;4.60;2.65;;;;;;;-2.75;69.79;99033.88;4933835;27;104064;-64
2024/01/08 00:11:51;;;;;;;5.43;3.03;;;;;;;-2.85;69.00;99029.16;4937426;28;103174;-64
2024/01/08 00:14:19;;;;;;;4.35;2.88;;;;;;;-2.74;69.53;99030.38;4930503;28;103271;-65
2024/01/08 00:16:47;;;;;;;4.70;2.63;;;;;;;-2.67;70.23;99032.59;4933440;28;103475;-63
2024/01/08 00:19:16;;;;;;;4.70;3.67;;;;;;;-2.57;70.89;99027.81;4928388;28;104413;-63
2024/01/08 00:21:44;;;;;;;5.50;3.05;;;;;;;-2.64;69.87;99023.00;4930578;28;103635;-63
2024/01/08 00:24:12;;;;;;;4.93;2.95;;;;;;;-2.80;69.24;99033.28;4938101;28;102915;-63
2024/01/08 00:26:40;;;;;;;4.32;2.55;;;;;;;-2.72;69.65;99028.56;4939815;28;103040;-63
2024/01/08 00:29:10;;;;;;;4.38;2.65;;;;;;;-2.78;68.24;99026.28;4936505;28;103390;-73
2024/01/08 00:31:38;;;;;;;5.45;3.10;;;;;;;-2.83;68.71;99027.34;4938372;28;103186;-73
2024/01/08 00:34:06;;;;;;;4.80;3.03;;;;;;;-2.75;68.52;99028.69;4940814;28;102723;-73
2024/01/08 00:36:35;;;;;;;4.95;3.00;;;;;;;-2.88;68.31;99031.91;4942300;28;104329;-73
2024/01/08 00:39:03;;;;;;;5.75;3.03;;;;;;;-2.70;69.24;99035.34;4940167;28;103204;-73
2024/01/08 00:41:34;;;;;;;5.80;3.00;;;;;;;-2.68;68.91;99035.28;4932838;28;103259;-73
2024/01/08 00:44:02;;;;;;;5.15;3.28;;;;;;;-2.58;69.47;99035.63;4937759;28;102828;-73
2024/01/08 00:46:31;;;;;;;4.65;2.83;;;;;;;-2.68;68.66;99036.09;4937941;28;102794;-73
2024/01/08 00:51:47;;;;;;;4.68;3.10;;;;;;;-2.66;68.47;99038.63;4940990;28;105336;-73
2024/01/08 00:54:15;;;;;;;4.10;2.70;;;;;;;-2.81;68.07;99032.44;4939458;28;102656;-73
2024/01/08 00:56:43;;;;;;;5.88;3.88;;;;;;;-2.66;68.64;99038.63;4939959;28;102777;-73
2024/01/08 00:59:11;;;;;;;5.35;3.42;;;;;;;-2.83;67.40;99032.53;4935250;28;103027;-73
2024/01/08 01:01:41;;;;;;;5.30;3.20;;;;;;;-2.76;68.29;99032.22;4939346;28;103199;-74
2024/01/08 01:04:09;;;;;;;5.47;3.17;;;;;;;-2.88;66.79;99044.88;4937064;28;102619;-73
2024/01/08 01:06:37;;;;;;;5.15;3.08;;;;;;;-2.82;67.55;99038.53;4941592;28;103882;-73
2024/01/08 01:09:05;;;;;;;5.25;3.28;;;;;;;-2.79;68.31;99037.53;4935643;28;104081;-74
2024/01/08 01:11:33;;;;;;;5.90;4.28;;;;;;;-2.77;67.53;99035.72;4943042;28;104328;-73
2024/01/08 01:14:01;;;;;;;5.85;3.47;;;;;;;-2.69;68.05;99038.78;4954700;28;102757;-73
2024/01/08 01:16:29;;;;;;;5.63;3.15;;;;;;;-2.92;67.52;99043.34;4941415;28;103524;-72
2024/01/08 01:18:59;;;;;;;5.65;3.03;;;;;;;-2.85;67.61;99039.53;4941458;28;103223;-74
2024/01/08 01:21:28;;;;;;;5.80;3.38;;;;;;;-2.87;67.33;99038.78;4940917;28;103382;-73
2024/01/08 01:23:55;;;;;;;4.97;2.85;;;;;;;-2.85;67.69;99038.69;4939102;27;102668;-74
2024/01/08 01:26:23;;;;;;;6.07;3.85;;;;;;;-2.73;68.66;99040.69;4936102;28;103073;-73
2024/01/08 01:28:52;;;;;;;5.30;3.35;;;;;;;-2.80;68.58;99049.69;4939212;28;103756;-74
2024/01/08 01:31:21;;;;;;;5.30;3.35;;;;;;;-2.78;68.32;99044.41;4935933;28;103265;-73
2024/01/08 01:33:51;;;;;;;6.82;4.07;;;;;;;-2.72;68.85;99049.31;4940878;28;102612;-73
2024/01/08 01:36:21;;;;;;;4.90;3.10;;;;;;;-2.73;67.06;99042.44;4944126;28;102655;-74
2024/01/08 01:38:49;;;;;;;5.53;3.30;;;;;;;-2.78;66.82;99057.38;4939328;28;104073;-73
2024/01/08 01:41:17;;;;;;;5.75;3.45;;;;;;;-2.87;66.16;99050.88;4937114;28;103869;-74
2024/01/08 01:43:45;;;;;;;6.00;3.63;;;;;;;-2.75;67.10;99049.44;4942195;28;102751;-73
2024/01/08 01:46:26;;;;;;;5.90;4.05;;;;;;;-2.70;67.01;99047.47;4942513;27;102761;-73
2024/01/08 01:48:55;;;;;;;6.70;3.85;;;;;;;-2.84;66.97;99048.97;4938035;28;103297;-63
2024/01/08 01:51:27;;;;;;;7.80;3.58;;;;;;;-2.81;67.80;99048.00;4944881;28;103283;-63
2024/01/08 01:53:58;;;;;;;5.30;3.38;;;;;;;-2.72;67.96;99050.13;4940322;28;102642;-63
2024/01/08 01:56:29;;;;;;;5.22;3.83;;;;;;;-2.68;67.91;99051.66;4940724;28;102780;-63
2024/01/08 01:58:57;;;;;;;6.78;3.45;;;;;;;-2.81;67.76;99060.13;4937641;28;103278;-63
2024/01/08 02:01:26;;;;;;;5.22;3.00;;;;;;;-2.79;67.44;99048.78;4934126;28;103194;-63
2024/01/08 02:03:54;;;;;;;7.18;5.15;;;;;;;-2.62;68.38;99050.53;4938918;28;102580;-63
2024/01/08 02:06:24;;;;;;;7.50;3.90;;;;;;;-2.48;66.79;99046.41;4942083;28;104092;-63
2024/01/08 02:08:57;;;;;;;6.15;3.58;;;;;;;-2.74;65.98;99040.75;4941426;28;104044;-63
2024/01/08 02:11:25;;;;;;;5.32;3.63;;;;;;;-2.66;67.22;99043.81;4949723;28;104989;-63
2024/01/08 02:13:53;;;;;;;6.40;3.20;;;;;;;-2.65;66.87;99040.28;4937968;28;102595;-63
2024/01/08 02:16:22;;;;;;;6.18;3.65;;;;;;;-2.66;66.96;99036.03;4940986;28;104011;-63
2024/01/08 02:18:50;;;;;;;5.03;3.45;;;;;;;-2.75;67.02;99034.75;4933598;28;104298;-63
2024/01/08 02:21:18;;;;;;;6.35;4.13;;;;;;;-2.57;67.69;99033.00;4935279;28;103302;-63
2024/01/08 02:23:48;;;;;;;6.95;4.05;;;;;;;-2.70;68.03;99034.50;4943012;28;102564;-63
2024/01/08 02:26:17;;;;;;;7.88;4.47;;;;;;;-2.54;68.32;99032.84;4939194;27;104125;-63
2024/01/08 02:28:45;;;;;;;7.47;5.40;;;;;;;-2.64;67.47;99030.78;4941373;28;104220;-63
2024/01/08 02:31:13;;;;;;;6.40;4.38;;;;;;;-2.60;67.15;99027.13;4937904;28;103272;-63
2024/01/08 02:33:41;;;;;;;7.85;4.03;;;;;;;-2.68;67.77;99019.72;4940046;28;102633;-63
2024/01/08 02:36:09;;;;;;;6.43;3.78;;;;;;;-2.60;69.10;99027.94;4935964;28;104013;-63
2024/01/08 02:38:37;;;;;;;6.05;4.03;;;;;;;-2.66;68.19;99033.44;4955751;28;104471;-63
2024/01/08 02:41:07;;;;;;;5.97;4.88;;;;;;;-2.64;66.70;99018.66;4935241;28;103136;-63
2024/01/08 02:43:35;;;;;;;5.40;3.47;;;;;;;-2.70;66.23;99029.31;4937353;28;102568;-63
2024/01/08 02:46:05;;;;;;;5.18;3.15;;;;;;;-2.76;65.85;99022.69;4934943;28;102904;-63
2024/01/08 02:48:33;;;;;;;5.45;4.20;;;;;;;-2.77;66.05;99015.81;4939814;28;102949;-63
2024/01/08 02:51:01;;;;;;;4.97;3.33;;;;;;;-2.80;65.37;99028.09;4950829;28;104195;-63
2024/01/08 02:53:29;;;;;;;5.97;3.45;;;;;;;-2.81;65.86;99029.03;4933009;28;102645;-63
2024/01/08 02:55:57;;;;;;;5.28;3.85;;;;;;;-2.73;66.16;99029.47;4935078;28;102749;-63
2024/01/08 02:58:27;;;;;;;4.93;2.60;;;;;;;-2.80;65.90;99038.44;4939952;28;104070;-63
2024/01/08 03:00:55;;;;;;;4.60;3.03;;;;;;;-2.63;66.40;99028.09;4935026;27;102992;-63
2024/01/08 03:03:23;;;;;;;5.60;3.35;;;;;;;-2.65;66.32;99034.28;4942056;28;102696;-63
2024/01/08 03:05:51;;;;;;;5.13;3.40;;;;;;;-2.74;65.54;99031.25;4939232;28;104061;-63
2024/01/08 03:08:20;;;;;;;6.55;3.50;;;;;;;-2.74;66.89;99051.13;4939854;28;103098;-63
2024/01/08 03:10:48;;;;;;;4.72;2.72;;;;;;;-2.66;67.04;99046.38;4937798;28;103211;-63
2024/01/08 03:13:16;;;;;;;5.68;3.50;;;;;;;-2.55;66.62;99036.34;4932846;28;103112;-63
2024/01/08 03:15:45;;;;;;;10.90;4.30;;;;;;;-2.56;66.00;99045.03;4938175;28;103752;-63
2024/01/08 03:18:13;;;;;;;6.30;4.10;;;;;;;-2.66;66.49;99046.38;4937478;28;104160;-63
2024/01/08 03:20:42;;;;;;;5.05;2.85;;;;;;;-2.67;66.57;99042.16;4939495;28;103392;-63
2024/01/08 03:23:10;;;;;;;6.20;4.20;;;;;;;-2.59;67.11;99045.19;4936996;28;102852;-63
2024/01/08 03:25:38;;;;;;;6.22;3.50;;;;;;;-2.64;66.55;99043.75;4939846;28;104604;-63
2024/01/08 03:28:06;;;;;;;5.32;3.60;;;;;;;-2.61;66.78;99046.19;4934469;28;104366;-63
2024/01/08 03:30:34;;;;;;;4.70;3.28;;;;;;;-2.54;66.64;99042.34;4935483;28;104287;-63
2024/01/08 03:33:04;;;;;;;5.68;3.70;;;;;;;-2.60;66.53;99040.91;4940593;28;102574;-63
2024/01/08 03:35:33;;;;;;;8.40;4.72;;;;;;;-2.46;66.26;99049.75;4930154;28;102861;-63
2024/01/08 03:38:01;;;;;;;6.70;3.67;;;;;;;-2.44;67.10;99042.75;4939171;28;104107;-63
2024/01/08 03:40:29;;;;;;;9.25;3.55;;;;;;;-2.43;66.78;99040.06;4937437;28;103197;-63
2024/01/08 03:42:57;;;;;;;5.57;3.70;;;;;;;-2.41;66.80;99038.25;4934423;28;102802;-73
2024/01/08 03:45:25;;;;;;;5.85;3.72;;;;;;;-2.61;67.01;99048.78;4936903;28;102701;-74
2024/01/08 03:47:53;;;;;;;6.60;3.90;;;;;;;-2.69;67.17;99049.16;4937594;28;103254;-73
2024/01/08 03:50:23;;;;;;;7.18;3.92;;;;;;;-2.65;67.36;99040.28;4938893;28;102919;-73
2024/01/08 03:52:51;;;;;;;7.43;4.45;;;;;;;-2.72;67.13;99038.94;4939014;28;102915;-73
2024/01/08 03:55:19;;;;;;;5.88;4.60;;;;;;;-2.50;68.00;99034.34;4936666;28;102637;-74
2024/01/08 03:57:47;;;;;;;6.32;3.53;;;;;;;-2.54;67.65;99043.22;4936760;28;104090;-74
2024/01/08 04:00:16;;;;;;;5.47;3.55;;;;;;;-2.67;67.31;99036.97;4939843;28;104090;-73
2024/01/08 04:02:44;;;;;;;5.88;3.47;;;;;;;-2.69;66.77;99039.59;4940243;28;102545;-73
2024/01/08 04:05:12;;;;;;;5.80;3.50;;;;;;;-2.78;67.31;99039.22;4940009;28;104188;-73
2024/01/08 04:07:42;;;;;;;5.85;3.60;;;;;;;-2.68;67.48;99030.09;4933422;28;103933;-72
2024/01/08 04:10:10;;;;;;;5.90;3.33;;;;;;;-2.71;67.60;99041.44;4936183;28;103315;-73
2024/01/08 04:12:38;;;;;;;4.70;3.25;;;;;;;-2.81;67.82;99042.81;4938448;28;102759;-73
2024/01/08 04:15:07;;;;;;;5.82;3.60;;;;;;;-2.68;67.60;99051.66;4937601;28;102651;-73
2024/01/08 04:17:35;;;;;;;6.25;4.00;;;;;;;-2.64;68.03;99049.75;4938385;28;104112;-73
2024/01/08 04:20:04;;;;;;;6.22;4.53;;;;;;;-2.48;67.61;99043.81;4933726;28;103489;-73
2024/01/08 04:22:32;;;;;;;7.45;4.10;;;;;;;-2.69;67.90;99049.16;4941546;28;102860;-73
2024/01/08 04:25:01;;;;;;;7.80;4.50;;;;;;;-2.63;67.95;99043.66;4938969;28;103953;-73
2024/01/08 04:27:30;;;;;;;6.05;3.97;;;;;;;-2.81;67.63;99054.94;4935480;27;104498;-74
2024/01/08 04:29:58;;;;;;;4.80;3.22;;;;;;;-2.88;66.86;99050.06;4936812;28;103175;-73
2024/01/08 04:32:26;;;;;;;5.30;3.25;;;;;;;-2.88;66.84;99055.25;4933868;28;102767;-73
2024/01/08 04:34:54;;;;;;;6.55;3.38;;;;;;;-2.93;66.22;99054.63;4938272;28;103877;-74
2024/01/08 04:37:22;;;;;;;6.38;3.60;;;;;;;-2.94;66.98;99054.69;4935915;28;107974;-73
2024/01/08 04:39:51;;;;;;;4.93;3.45;;;;;;;-3.03;66.62;99056.78;4927738;28;104312;-73
2024/01/08 04:42:20;;;;;;;4.07;2.75;;;;;;;-3.04;66.44;99054.28;4933528;28;102759;-73
2024/01/08 04:44:49;;;;;;;4.65;3.40;;;;;;;-3.06;66.21;99056.13;4939287;28;102723;-73
2024/01/08 04:47:17;;;;;;;5.30;3.50;;;;;;;-2.97;66.51;99060.88;4940761;28;103298;-73
2024/01/08 04:49:46;;;;;;;7.97;3.97;;;;;;;-2.96;67.11;99062.56;4941099;28;103133;-73
2024/01/08 04:52:14;;;;;;;5.28;3.55;;;;;;;-2.94;65.72;99065.91;4941804;28;103615;-73
2024/01/08 04:54:42;;;;;;;7.82;4.30;;;;;;;-2.98;65.42;99068.72;4942190;28;104284;-72
2024/01/08 04:57:10;;;;;;;5.63;3.78;;;;;;;-3.08;65.16;99065.72;4939615;28;104411;-72
2024/01/08 04:59:41;;;;;;;5.28;3.47;;;;;;;-3.13;66.11;99068.53;4937899;28;103255;-72
2024/01/08 05:02:10;;;;;;;5.45;3.40;;;;;;;-3.04;65.86;99069.84;4939502;28;102672;-73
2024/01/08 05:04:38;;;;;;;6.07;3.25;;;;;;;-2.97;66.40;99071.22;4936987;28;104071;-72
2024/01/08 05:07:07;;;;;;;5.22;3.58;;;;;;;-2.98;67.17;99076.50;4939777;28;104152;-73
2024/01/08 05:09:37;;;;;;;6.00;3.58;;;;;;;-3.04;65.84;99075.00;4930241;28;104148;-73
2024/01/08 05:12:06;;;;;;;5.88;3.53;;;;;;;-3.07;66.83;99077.75;4923130;28;102706;-73
2024/01/08 05:14:35;;;;;;;6.15;3.80;;;;;;;-2.96;66.86;99075.50;4934002;28;104174;-73
2024/01/08 05:17:19;;;;;;;5.70;3.22;;;;;;;-3.11;66.46;99079.66;4941952;27;104210;-72
2024/01/08 05:19:55;;;;;;;5.78;3.58;;;;;;;-3.00;66.48;99081.72;4938119;27;103164;-74
2024/01/08 05:22:24;;;;;;;7.18;3.67;;;;;;;-3.18;65.83;99078.28;4930808;28;102654;-73
2024/01/08 05:24:53;;;;;;;6.30;3.58;;;;;;;-3.17;65.72;99085.13;4938229;28;102996;-73
2024/01/08 05:27:21;;;;;;;11.43;3.38;;;;;;;-3.21;65.14;99094.81;4930621;27;103877;-73
2024/01/08 05:29:50;;;;;;;6.38;3.95;;;;;;;-3.18;65.63;99084.28;4942840;28;103199;-73
2024/01/08 05:32:20;;;;;;;7.90;3.80;;;;;;;-3.11;65.96;99084.84;4932147;28;103144;-74
2024/01/08 05:34:49;;;;;;;6.47;3.65;;;;;;;-3.23;65.89;99091.44;4937984;28;103931;-63
2024/01/08 05:37:17;;;;;;;7.57;4.35;;;;;;;-3.09;66.99;99082.16;4929649;28;103599;-65
2024/01/08 05:39:46;;;;;;;7.63;3.92;;;;;;;-3.09;66.14;99087.34;4932931;28;103751;-64
2024/01/08 05:42:15;;;;;;;7.47;3.83;;;;;;;-2.98;66.54;99092.88;4931133;28;103213;-65
2024/01/08 05:44:43;;;;;;;5.28;3.35;;;;;;;-3.18;64.96;99099.84;4930566;28;103137;-65
2024/01/08 05:47:11;;;;;;;6.20;3.50;;;;;;;-3.21;65.64;99094.81;4934045;28;103570;-65
2024/01/08 05:49:41;;;;;;;7.63;3.70;;;;;;;-3.17;65.38;99096.34;4922035;27;103277;-64
2024/01/08 05:52:09;;;;;;;5.78;4.05;;;;;;;-3.09;66.04;99093.41;4933325;28;102627;-65
2024/01/08 05:54:37;;;;;;;8.48;4.40;;;;;;;-3.08;67.21;99095.06;4932338;28;104343;-73
2024/01/08 05:57:07;;;;;;;4.93;3.10;;;;;;;-3.26;66.09;99101.94;4935267;28;104389;-73
2024/01/08 05:59:35;;;;;;;6.18;3.85;;;;;;;-3.24;66.79;99104.47;4931554;28;103301;-73
2024/01/08 06:02:05;;;;;;;6.40;3.78;;;;;;;-3.23;66.51;99101.78;4934252;28;102754;-73
2024/01/08 06:04:33;;;;;;;6.03;4.10;;;;;;;-3.10;66.34;99109.03;4930829;28;103999;-73
2024/01/08 06:07:03;;;;;;;7.03;4.00;;;;;;;-3.02;66.49;99104.31;4931757;28;103350;-74
2024/01/08 06:09:31;;;;;;;8.02;4.18;;;;;;;-2.98;66.08;99103.25;4933374;28;103310;-72
2024/01/08 06:11:59;;;;;;;5.95;3.97;;;;;;;-3.11;65.50;99115.09;4936846;27;103176;-73
2024/01/08 06:14:27;;;;;;;6.05;3.92;;;;;;;-3.09;65.99;99110.66;4939415;28;103965;-73
2024/01/08 06:16:55;;;;;;;8.38;4.65;;;;;;;-3.09;65.26;99118.44;4934122;28;103972;-73
2024/01/08 06:19:23;;;;;;;6.57;3.15;;;;;;;-3.30;63.46;99118.56;4932998;28;102629;-74
2024/01/08 06:21:51;;;;;;;5.25;3.20;;;;;;;-3.22;63.60;99121.63;4935417;28;103042;-75
2024/01/08 06:24:21;;;;;;;7.78;3.88;;;;;;;-3.11;64.45;99123.72;4934787;28;104025;-73
2024/01/08 06:26:49;;;;;;;7.22;3.70;;;;;;;-3.06;64.89;99128.69;4934416;28;104276;-73
2024/01/08 06:29:17;;;;;;;6.30;3.83;;;;;;;-2.89;64.02;99123.53;4944534;28;103249;-75
2024/01/08 06:31:46;;;;;;;6.40;3.38;;;;;;;-2.81;64.21;99122.34;4944305;28;103253;-74
2024/01/08 06:34:14;;;;;;;6.20;3.85;;;;;;;-2.91;62.62;99122.78;4926070;27;104352;-74
2024/01/08 06:36:42;;;;;;;6.50;3.70;;;;;;;-3.12;63.19;99121.19;4933557;28;103415;-74
2024/01/08 06:39:10;;;;;;;6.50;3.30;;;;;;;-3.02;63.00;99125.03;4942727;28;103579;-75
2024/01/08 06:41:40;;;;;;;4.93;3.40;;;;;;;-3.00;63.88;99125.78;4929415;28;103827;-73
2024/01/08 06:44:08;;;;;;;5.03;3.33;;;;;;;-2.96;62.99;99114.41;4934339;28;104555;-73
2024/01/08 06:46:36;;;;;;;6.07;3.45;;;;;;;-2.97;62.73;99119.63;4928977;28;103648;-73
2024/01/08 06:49:04;;;;;;;5.07;3.40;;;;;;;-2.87;62.94;99121.72;4933408;28;103176;-72
2024/01/08 06:51:54;;;;;;;6.18;3.95;;;;;;;-3.07;63.16;99119.22;4938895;27;102991;-72
2024/01/08 06:54:31;;;;;;;4.55;3.03;;;;;;;-2.91;62.92;99122.78;4919544;27;104162;-74
2024/01/08 06:57:01;;;;;;;7.05;3.92;;;;;;;-3.08;62.46;99130.50;4936068;28;103278;-72
2024/01/08 06:59:32;;;;;;;6.00;3.92;;;;;;;-3.09;62.89;99137.44;4934851;28;103210;-72
2024/01/08 07:02:01;;;;;;;6.60;3.92;;;;;;;-3.02;63.29;99127.63;4934588;28;102883;-72
2024/01/08 07:04:29;;;;;;;5.18;3.13;;;;;;;-2.90;62.20;99127.03;4925699;28;103894;-72
2024/01/08 07:06:57;;;;;;;6.22;3.45;;;;;;;-2.96;62.46;99135.13;4941885;28;104053;-72
2024/01/08 07:09:25;;;;;;;5.93;3.50;;;;;;;-2.93;62.62;99134.16;4932329;28;103280;-72
2024/01/08 07:11:53;;;;;;;6.38;3.72;;;;;;;-2.99;63.41;99130.06;4930293;28;103021;-72
2024/01/08 07:14:23;;;;;;;5.32;3.35;;;;;;;-3.09;61.93;99134.00;4926046;28;102701;-72
2024/01/08 07:16:52;;;;;;;7.10;4.20;;;;;;;-2.86;63.60;99136.34;4936858;27;103251;-72
2024/01/08 07:19:20;;;;;;;7.28;3.75;;;;;;;-2.92;62.75;99135.81;4936596;27;103241;-72
2024/01/08 07:21:48;;;;;;;6.18;4.20;;;;;;;-2.94;62.77;99127.28;4931366;28;103067;-74
2024/01/08 07:24:16;;;;;;;6.72;3.38;;;;;;;-2.99;63.03;99140.44;4930263;27;104377;-73
2024/01/08 07:26:44;;;;;;;5.00;3.35;;;;;;;-2.98;63.24;99136.94;4936299;28;104417;-74
2024/01/08 07:29:15;;;;;;;6.95;4.22;;;;;;;-3.03;63.20;99138.91;4936066;28;103273;-72
2024/01/08 07:31:45;;;;;;;8.95;4.07;;;;;;;-2.93;63.03;99140.16;4929059;28;102814;-63
2024/01/08 07:34:16;;;;;;;7.05;3.90;;;;;;;-2.83;64.22;99137.94;4924333;28;104011;-71
2024/01/08 07:36:44;;;;;;;8.82;3.90;;;;;;;-2.77;63.68;99129.06;4936538;28;104075;-71
2024/01/08 07:39:14;;;;;;;5.93;3.60;;;;;;;-3.04;63.56;99137.22;4931164;27;103069;-71
2024/01/08 07:41:43;;;;;;;5.43;3.75;;;;;;;-2.81;63.48;99141.31;4930059;28;102741;-63
2024/01/08 07:44:11;;;;;;;7.00;4.05;;;;;;;-2.70;62.77;99131.28;4922362;28;103099;-72
2024/01/08 07:46:39;;;;;;;6.32;3.25;;;;;;;-2.83;63.39;99140.53;4942458;27;103274;-63
2024/01/08 07:49:10;;;;;;;5.53;3.17;;;;;;;-2.64;63.53;99140.53;4931500;28;103679;-63
2024/01/08 07:52:28;;;;;;;5.43;3.20;;;;;;;-2.75;63.30;99145.38;4934244;28;102768;-63
2024/01/08 07:55:37;;;;;;;5.88;3.97;;;;;;;-2.55;63.56;99158.22;4939273;28;103126;-72
2024/01/08 07:58:06;;;;;;;6.10;3.67;;;;;;;-2.60;63.84;99147.25;4942452;27;104073;-71
2024/01/08 08:00:34;;;;;;;6.75;4.18;;;;;;;-2.79;62.45;99162.84;4923734;28;103510;-63
2024/01/08 08:03:04;;;;;;;7.18;3.60;;;;;;;-2.96;62.34;99161.03;4935291;28;102785;-72
2024/01/08 08:05:34;;;;;;;8.18;4.57;;;;;;;-2.99;62.68;99163.75;4929864;28;103842;-72
2024/01/08 08:08:04;;;;;;;5.88;3.33;;;;;;;-2.85;63.67;99163.97;4936332;28;104205;-71
2024/01/08 08:10:32;;;;;;;6.25;3.75;;;;;;;-2.77;64.29;99167.97;4930640;28;103041;-72
2024/01/08 08:13:01;;;;;;;7.05;3.75;;;;;;;-2.81;63.29;99164.66;4930344;28;102825;-71
2024/01/08 08:15:32;;;;;;;6.13;3.58;;;;;;;-2.67;63.28;99177.00;4930725;28;103721;-70
2024/01/08 08:18:00;;;;;;;5.85;3.53;;;;;;;-2.67;63.08;99177.00;4930350;28;103056;-72
2024/01/08 08:20:32;;;;;;;8.30;3.17;;;;;;;-2.85;62.60;99178.69;4921011;27;104225;-71
2024/01/08 08:23:01;;;;;;;9.70;4.95;;;;;;;-2.65;62.78;99179.50;4919242;28;102934;-64
2024/01/08 08:25:30;;;;;;;5.20;3.28;;;;;;;-2.65;62.27;99182.91;4925275;28;102945;-64
2024/01/08 08:27:58;;;;;;;6.45;4.00;;;;;;;-2.77;62.06;99175.75;4925870;28;104436;-64
2024/01/08 08:30:29;;;;;;;6.45;4.00;;;;;;;-2.93;61.93;99176.44;4929474;27;103267;-65
2024/01/08 08:32:58;;;;;;;5.70;3.60;;;;;;;-2.88;62.72;99171.88;4948359;28;102686;-64
2024/01/08 08:35:27;;;;;;;5.32;3.72;;;;;;;-2.81;62.48;99180.22;4930430;28;102885;-64
2024/01/08 08:37:58;;;;;;;6.53;3.80;;;;;;;-2.88;62.74;99184.03;4935924;28;103251;-64
2024/01/08 08:40:28;;;;;;;6.53;3.50;;;;;;;-2.72;62.41;99184.13;4931824;28;103225;-64
2024/01/08 08:42:56;;;;;;;5.75;3.72;;;;;;;-2.60;62.39;99180.94;4926965;27;102763;-71
2024/01/08 08:45:24;;;;;;;4.80;3.33;;;;;;;-2.81;61.87;99181.97;4933223;27;102779;-72
2024/01/08 08:47:52;;;;;;;6.47;3.30;;;;;;;-2.92;63.14;99183.31;4934754;27;103400;-70
2024/01/08 08:50:21;;;;;;;5.70;3.85;;;;;;;-2.79;62.80;99186.19;4925822;28;103398;-72
2024/01/08 08:52:52;;;;;;;5.28;3.13;;;;;;;-2.64;62.62;99188.97;4933193;28;103032;-71
2024/01/08 08:55:20;;;;;;;4.80;3.40;;;;;;;-2.88;61.58;99184.84;4926802;28;104032;-71
2024/01/08 08:57:49;;;;;;;7.22;3.90;;;;;;;-2.77;63.14;99188.69;4938260;27;103411;-71
2024/01/08 09:00:19;;;;;;;6.28;4.18;;;;;;;-2.93;61.64;99185.97;4933949;28;103227;-72
2024/01/08 09:02:52;;;;;;;5.97;4.22;;;;;;;-2.83;62.77;99188.06;4922139;27;103119;-74
2024/01/08 09:05:21;;;;;;;7.80;3.35;;;;;;;-2.71;62.03;99188.38;4937231;28;103005;-72
2024/01/08 09:08:03;;;;;;;5.30;3.10;;;;;;;-2.77;61.90;99196.47;4931371;28;104182;-72
2024/01/08 09:10:32;;;;;;;5.72;3.20;;;;;;;-2.58;62.56;99197.28;4932459;28;103335;-71
2024/01/08 09:13:02;;;;;;;5.63;3.63;;;;;;;-2.47;61.77;99198.53;4925195;28;102807;-72
2024/01/08 09:15:30;;;;;;;7.10;4.57;;;;;;;-2.65;61.93;99206.25;4945611;28;102700;-73
2024/01/08 09:17:58;;;;;;;8.10;3.75;;;;;;;-2.54;63.51;99201.41;4934049;28;104297;-71
2024/01/08 09:20:29;;;;;;;6.47;4.45;;;;;;;-2.69;62.64;99212.50;4926496;28;104077;-71
2024/01/08 09:22:57;;;;;;;7.18;3.53;;;;;;;-2.62;62.21;99221.69;4931369;28;102674;-72
2024/01/08 09:25:25;;;;;;;5.60;3.58;;;;;;;-2.83;62.10;99219.19;4936689;27;104557;-71
2024/01/08 09:27:54;;;;;;;6.25;3.30;;;;;;;-2.83;62.20;99223.50;4925679;28;103245;-72
2024/01/08 09:30:23;;;;;;;7.60;4.85;;;;;;;-2.65;62.57;99231.38;4932266;28;103338;-72
2024/01/08 09:32:51;;;;;;;6.97;3.88;;;;;;;-2.79;62.28;99219.03;4936027;28;102732;-73
2024/01/08 09:35:20;;;;;;;4.57;3.08;;;;;;;-2.60;61.84;99227.63;4933144;28;104460;-64
2024/01/08 09:37:48;;;;;;;6.65;3.13;;;;;;;-2.63;61.63;99230.38;4934593;28;103235;-64
2024/01/08 09:40:16;;;;;;;6.95;3.85;;;;;;;-2.67;62.29;99234.88;4934045;28;103313;-64
2024/01/08 09:42:45;;;;;;;6.07;3.97;;;;;;;-2.64;62.07;99236.47;4935168;28;102748;-64
2024/01/08 09:45:13;;;;;;;7.53;3.60;;;;;;;-2.61;62.06;99235.50;4936311;28;104207;-64
2024/01/08 09:47:43;;;;;;;5.78;3.72;;;;;;;-2.78;62.18;99237.09;4903989;28;108892;-65
2024/01/08 09:50:13;;;;;;;8.00;3.90;;;;;;;-2.58;62.30;99233.59;4934997;28;103293;-64
2024/01/08 09:52:44;;;;;;;6.05;3.65;;;;;;;-2.76;61.57;99235.28;4932503;28;103071;-64
2024/01/08 09:55:13;;;;;;;5.40;3.53;;;;;;;-2.88;61.65;99233.28;4937909;28;102881;-64
2024/01/08 09:57:41;;;;;;;6.88;3.20;;;;;;;-2.90;61.89;99235.09;4932749;28;103229;-64
2024/01/08 10:00:11;;;;;;;8.10;4.95;;;;;;;-2.71;61.57;99237.66;4931023;28;103191;-64
2024/01/08 10:02:40;;;;;;;6.75;3.80;;;;;;;-2.64;62.26;99233.88;4937016;28;102590;-63
2024/01/08 10:05:10;;;;;;;5.18;3.30;;;;;;;-2.78;61.34;99231.09;4936656;28;103627;-64
2024/01/08 10:07:39;;;;;;;6.40;3.50;;;;;;;-2.63;63.04;99230.38;4925460;27;103197;-64
2024/01/08 10:10:08;;;;;;;5.38;3.45;;;;;;;-2.77;62.37;99230.19;4932600;28;104429;-64
2024/01/08 10:12:36;;;;;;;5.95;4.72;;;;;;;-2.70;61.69;99234.16;4935209;28;102655;-63
2024/01/08 10:15:06;;;;;;;5.60;3.22;;;;;;;-2.79;62.77;99230.25;4935071;28;103881;-64
2024/01/08 10:17:34;;;;;;;6.57;3.88;;;;;;;-2.91;61.94;99229.06;4930927;28;104029;-64
2024/01/08 10:20:07;;;;;;;7.18;3.67;;;;;;;-2.66;62.62;99230.50;4930143;28;104154;-64
2024/01/08 10:22:37;;;;;;;6.38;3.80;;;;;;;-2.83;62.22;99232.16;4936328;28;102537;-64
2024/01/08 10:25:06;;;;;;;6.35;3.90;;;;;;;-2.59;61.39;99229.31;4951550;28;104152;-64
2024/01/08 10:27:35;;;;;;;7.80;4.80;;;;;;;-2.69;61.59;99228.06;4937858;28;104917;-65
2024/01/08 10:30:04;;;;;;;6.60;4.45;;;;;;;-2.44;61.25;99224.31;4930411;27;103657;-64
2024/01/08 10:32:32;;;;;;;6.28;3.83;;;;;;;-2.63;61.58;99225.19;4936861;28;102685;-64
2024/01/08 10:35:03;;;;;;;7.15;4.53;;;;;;;-2.66;62.06;99222.72;4938100;28;104128;-65
2024/01/08 10:37:32;;;;;;;7.60;4.47;;;;;;;-2.58;61.80;99228.41;4931526;28;103995;-64
2024/01/08 10:40:03;;;;;;;7.43;3.85;;;;;;;-2.56;61.89;99221.38;4934900;28;103726;-65
2024/01/08 10:42:31;;;;;;;7.45;3.90;;;;;;;-2.92;61.41;99219.59;4934179;28;102822;-64
2024/01/08 10:44:59;;;;;;;7.72;4.82;;;;;;;-2.69;61.98;99215.94;4939361;28;104144;-64
2024/01/08 10:47:29;;;;;;;6.07;3.72;;;;;;;-2.58;60.69;99222.38;4939976;28;104271;-64
2024/01/08 10:49:59;;;;;;;9.32;3.97;;;;;;;-2.58;62.67;99222.38;4932928;28;104210;-65
2024/01/08 10:52:30;;;;;;;7.22;4.43;;;;;;;-2.30;60.70;99221.91;4935429;27;102954;-63
2024/01/08 10:55:04;;;;;;;6.38;3.53;;;;;;;-2.59;58.69;99211.16;4934143;28;103365;-64
2024/01/08 10:57:39;;;;;;;5.38;3.42;;;;;;;-2.47;60.01;99216.69;4932119;28;104327;-67
2024/01/08 11:00:09;;;;;;;6.03;3.97;;;;;;;-2.31;59.70;99215.03;4930907;28;103077;-63
2024/01/08 11:02:38;;;;;;;5.93;4.38;;;;;;;-2.46;60.04;99215.75;4935523;28;102789;-72
2024/01/08 11:05:08;;;;;;;8.15;3.25;;;;;;;-2.18;60.63;99218.72;4936677;28;104372;-71
2024/01/08 11:07:39;;;;;;;5.68;3.80;;;;;;;-2.45;61.24;99214.84;4937646;28;103375;-73
2024/01/08 11:10:10;;;;;;;6.32;3.83;;;;;;;-2.50;60.58;99215.91;4939411;28;103095;-66
2024/01/08 11:12:41;;;;;;;6.30;4.00;;;;;;;-2.24;59.92;99213.84;4920520;28;105100;-63
2024/01/08 11:15:14;;;;;;;6.88;4.93;;;;;;;-2.34;60.82;99212.59;4930876;28;103988;-65
2024/01/08 11:17:51;;;;;;;6.63;4.88;;;;;;;-2.42;60.14;99209.53;4932109;28;103343;-64
2024/01/08 11:20:41;;;;;;;7.30;4.40;;;;;;;-2.56;60.56;99216.19;4930531;28;103892;-64
2024/01/08 11:23:32;;;;;;;7.20;4.47;;;;;;;-2.67;60.77;99213.28;4938250;28;102768;-64
2024/01/08 11:26:08;;;;;;;7.37;3.10;;;;;;;-2.69;60.43;99215.94;4933465;28;102743;-64
2024/01/08 11:28:38;;;;;;;6.22;3.70;;;;;;;-2.73;61.03;99208.38;4935572;28;103786;-64
2024/01/08 11:31:43;;;;;;;6.93;3.95;;;;;;;-2.64;62.74;99209.72;4933350;27;103046;-64
2024/01/08 11:34:38;;;;;;;6.43;4.03;;;;;;;-2.52;61.59;99219.50;4927946;27;102713;-64
2024/01/08 11:37:31;;;;;;;6.72;4.03;;;;;;;-2.31;61.13;99215.03;4932467;28;104031;-64
2024/01/08 11:40:02;;;;;;;7.03;4.20;;;;;;;-2.08;60.66;99207.91;4928087;28;104210;-64